createdAt,value
2018-03-27T00:01:37.609Z,5.00
2018-03-27T00:04:06.854Z,5.00
2018-03-27T00:06:36.132Z,5.00
2018-03-27T00:09:05.409Z,5.00
2018-03-27T00:11:34.723Z,5.00
2018-03-27T00:14:04.178Z,5.00
2018-03-27T00:16:33.405Z,5.00
2018-03-27T00:19:02.674Z,4.90
2018-03-27T00:21:31.925Z,4.90
2018-03-27T00:24:01.201Z,4.90
2018-03-27T00:26:30.495Z,4.90
2018-03-27T00:29:17.396Z,4.90
2018-03-27T00:32:10.307Z,4.90
2018-03-27T00:35:03.290Z,5.00
2018-03-27T00:37:56.191Z,5.00
2018-03-27T00:40:42.854Z,4.90
2018-03-27T00:43:15.046Z,5.00
2018-03-27T00:45:44.083Z,5.00
2018-03-27T00:48:12.960Z,5.00
2018-03-27T00:50:41.901Z,5.00
2018-03-27T00:53:11.210Z,5.10
2018-03-27T00:55:40.494Z,5.00
2018-03-27T00:58:09.714Z,5.00
2018-03-27T01:00:39.007Z,5.00
2018-03-27T01:03:08.222Z,5.00
2018-03-27T01:05:37.473Z,5.10
2018-03-27T01:08:06.729Z,5.20
2018-03-27T01:10:35.983Z,5.20
2018-03-27T01:13:05.976Z,5.30
2018-03-27T01:15:36.104Z,5.40
2018-03-27T01:18:05.390Z,5.40
2018-03-27T01:20:34.630Z,5.40
2018-03-27T01:23:03.921Z,5.40
2018-03-27T01:25:33.210Z,5.50
2018-03-27T01:28:02.476Z,5.50
2018-03-27T01:30:31.841Z,5.50
2018-03-27T01:33:01.127Z,5.50
2018-03-27T01:35:30.381Z,5.50
2018-03-27T01:37:59.652Z,5.40
2018-03-27T01:40:28.925Z,5.50
2018-03-27T01:42:59.042Z,5.40
2018-03-27T01:45:29.102Z,5.40
2018-03-27T01:47:58.554Z,5.40
2018-03-27T01:50:27.946Z,5.30
2018-03-27T01:52:57.410Z,5.30
2018-03-27T01:55:26.894Z,5.30
2018-03-27T01:57:56.187Z,5.30
2018-03-27T02:00:26.258Z,5.30
2018-03-27T02:02:55.529Z,5.30
2018-03-27T02:05:24.827Z,5.20
2018-03-27T02:07:54.274Z,5.20
2018-03-27T02:10:23.559Z,5.20
2018-03-27T02:12:58.536Z,5.20
2018-03-27T02:15:33.151Z,5.10
2018-03-27T02:18:07.989Z,5.00
2018-03-27T02:20:42.848Z,4.80
2018-03-27T02:23:22.789Z,4.70
2018-03-27T02:25:52.162Z,4.50
2018-03-27T02:28:21.714Z,4.40
2018-03-27T02:30:50.953Z,4.30
2018-03-27T02:33:20.207Z,4.20
2018-03-27T02:35:49.445Z,4.10
2018-03-27T02:38:19.101Z,4.00
2018-03-27T02:40:48.371Z,3.80
2018-03-27T02:43:17.671Z,3.60
2018-03-27T02:45:47.810Z,3.60
2018-03-27T02:48:17.837Z,3.60
2018-03-27T02:50:47.099Z,3.50
2018-03-27T02:53:16.363Z,3.50
2018-03-27T02:55:45.874Z,3.40
2018-03-27T02:58:15.109Z,3.40
2018-03-27T03:00:44.458Z,3.30
2018-03-27T03:03:13.707Z,3.20
2018-03-27T03:05:43.166Z,3.30
2018-03-27T03:08:12.421Z,3.30
2018-03-27T03:10:41.666Z,3.40
2018-03-27T03:13:11.162Z,3.50
2018-03-27T03:15:41.186Z,3.60
2018-03-27T03:18:10.450Z,3.60
2018-03-27T03:20:39.851Z,3.70
2018-03-27T03:23:09.214Z,3.80
2018-03-27T03:25:38.546Z,3.90
2018-03-27T03:28:07.809Z,3.90
2018-03-27T03:30:37.085Z,3.90
2018-03-27T03:33:06.420Z,4.00
2018-03-27T03:35:35.650Z,4.00
2018-03-27T03:38:04.903Z,4.00
2018-03-27T03:40:34.134Z,4.10
2018-03-27T03:43:03.362Z,4.20
2018-03-27T03:45:32.630Z,4.20
2018-03-27T03:48:01.876Z,4.30
2018-03-27T03:50:31.142Z,4.30
2018-03-27T03:53:00.462Z,4.30
2018-03-27T03:55:29.863Z,4.30
2018-03-27T03:57:59.094Z,4.20
2018-03-27T04:00:28.348Z,4.30
2018-03-27T04:02:57.606Z,4.30
2018-03-27T04:05:26.869Z,4.40
2018-03-27T04:07:56.896Z,4.30
2018-03-27T04:10:26.170Z,4.30
2018-03-27T04:12:55.449Z,4.30
2018-03-27T04:15:24.724Z,4.20
2018-03-27T04:17:54.721Z,4.20
2018-03-27T04:20:24.193Z,4.20
2018-03-27T04:22:53.758Z,4.20
2018-03-27T04:25:23.025Z,4.10
2018-03-27T04:27:52.284Z,3.90
2018-03-27T04:30:21.591Z,3.80
2018-03-27T04:32:51.588Z,3.70
2018-03-27T04:35:20.894Z,3.60
2018-03-27T04:37:50.378Z,3.60
2018-03-27T04:40:19.832Z,3.60
2018-03-27T04:42:49.104Z,3.50
2018-03-27T04:45:18.363Z,3.40
2018-03-27T04:47:47.603Z,3.30
2018-03-27T04:50:17.126Z,3.30
2018-03-27T04:52:46.362Z,3.20
2018-03-27T04:55:15.617Z,3.20
2018-03-27T04:57:44.878Z,3.10
2018-03-27T05:00:14.118Z,3.00
2018-03-27T05:02:43.460Z,2.90
2018-03-27T05:05:12.708Z,2.90
2018-03-27T05:07:41.965Z,2.80
2018-03-27T05:10:11.234Z,2.70
2018-03-27T05:12:40.490Z,2.80
2018-03-27T05:15:10.525Z,2.80
2018-03-27T05:17:39.793Z,2.70
2018-03-27T05:20:09.010Z,2.80
2018-03-27T05:22:39.064Z,2.90
2018-03-27T05:25:08.322Z,2.90
2018-03-27T05:27:37.593Z,3.00
2018-03-27T05:30:07.030Z,3.00
2018-03-27T05:32:37.071Z,3.10
2018-03-27T05:35:06.345Z,3.10
2018-03-27T05:37:35.616Z,3.10
2018-03-27T05:40:04.920Z,3.10
2018-03-27T05:42:34.174Z,3.10
2018-03-27T05:45:04.214Z,3.00
2018-03-27T05:47:33.478Z,3.00
2018-03-27T05:50:02.927Z,3.10
2018-03-27T05:52:32.223Z,3.30
2018-03-27T05:55:01.539Z,3.40
2018-03-27T05:57:30.861Z,3.50
2018-03-27T06:00:00.117Z,3.40
2018-03-27T06:02:29.386Z,3.50
2018-03-27T06:04:59.502Z,3.60
2018-03-27T06:07:28.914Z,3.60
2018-03-27T06:09:58.141Z,3.70
2018-03-27T06:12:27.420Z,3.80
2018-03-27T06:14:57.475Z,4.10
2018-03-27T06:17:26.927Z,4.10
2018-03-27T06:19:56.217Z,4.40
2018-03-27T06:22:25.447Z,4.50
2018-03-27T06:24:55.706Z,4.90
2018-03-27T06:27:25.097Z,4.90
2018-03-27T06:29:54.348Z,4.90
2018-03-27T06:32:23.600Z,4.90
2018-03-27T06:34:52.892Z,5.00
2018-03-27T06:37:22.213Z,5.30
2018-03-27T06:39:51.487Z,5.50
2018-03-27T06:42:20.752Z,5.70
2018-03-27T06:44:50.163Z,5.80
2018-03-27T06:47:19.405Z,5.90
2018-03-27T06:49:48.681Z,5.90
2018-03-27T06:52:17.939Z,6.30
2018-03-27T06:54:47.204Z,8.30
2018-03-27T06:57:16.456Z,10.50
2018-03-27T06:59:45.728Z,13.00
2018-03-27T07:02:15.031Z,14.70
2018-03-27T07:04:44.353Z,16.10
2018-03-27T07:07:13.660Z,16.80
2018-03-27T07:09:42.894Z,16.40
2018-03-27T07:12:12.272Z,15.80
2018-03-27T07:14:41.576Z,15.50
2018-03-27T07:17:10.819Z,15.20
2018-03-27T07:19:40.065Z,14.60
2018-03-27T07:22:09.338Z,13.70
2018-03-27T07:24:38.632Z,12.80
2018-03-27T07:27:07.953Z,12.30
2018-03-27T07:29:37.247Z,12.00
2018-03-27T07:32:06.534Z,11.90
2018-03-27T07:34:36.001Z,12.40
2018-03-27T07:37:06.058Z,16.30
2018-03-27T07:39:35.333Z,16.30
2018-03-27T07:42:04.835Z,18.00
2018-03-27T07:44:34.301Z,18.70
2018-03-27T07:47:03.605Z,19.60
2018-03-27T07:49:33.692Z,21.40
2018-03-27T07:52:02.949Z,21.40
2018-03-27T07:54:32.979Z,22.90
2018-03-27T07:57:03.009Z,23.20
2018-03-27T07:59:32.282Z,23.20
2018-03-27T08:02:01.541Z,23.70
2018-03-27T08:04:30.860Z,24.20
2018-03-27T08:07:00.103Z,24.40
2018-03-27T08:09:30.399Z,25.20
2018-03-27T08:11:59.818Z,25.20
2018-03-27T08:14:29.877Z,26.10
2018-03-27T08:16:59.334Z,26.10
2018-03-27T08:19:28.598Z,27.10
2018-03-27T08:21:57.866Z,27.90
2018-03-27T08:24:27.390Z,27.80
2018-03-27T08:26:56.744Z,27.40
2018-03-27T08:29:26.140Z,27.30
2018-03-27T08:31:55.528Z,27.90
2018-03-27T08:34:24.793Z,27.90
2018-03-27T08:36:54.097Z,27.50
2018-03-27T08:39:23.387Z,26.90
2018-03-27T08:41:52.680Z,26.20
2018-03-27T08:44:22.718Z,26.00
2018-03-27T08:46:52.014Z,26.00
2018-03-27T08:49:21.267Z,26.50
2018-03-27T08:51:52.072Z,26.60
2018-03-27T08:54:21.325Z,26.70
2018-03-27T08:56:51.348Z,25.70
2018-03-27T08:59:21.544Z,24.90
2018-03-27T09:01:50.809Z,24.80
2018-03-27T09:04:20.094Z,24.30
2018-03-27T09:06:49.353Z,23.50
2018-03-27T09:09:18.640Z,22.10
2018-03-27T09:11:47.889Z,21.30
2018-03-27T09:14:17.145Z,20.90
2018-03-27T09:16:46.608Z,20.80
2018-03-27T09:19:15.880Z,20.70
2018-03-27T09:21:45.192Z,20.00
2018-03-27T09:24:14.577Z,20.00
2018-03-27T09:26:43.810Z,19.00
2018-03-27T09:29:13.091Z,18.90
2018-03-27T09:31:43.198Z,16.90
2018-03-27T09:34:12.680Z,16.80
2018-03-27T09:36:41.943Z,17.50
2018-03-27T09:39:11.236Z,17.60
2018-03-27T09:41:41.268Z,16.40
2018-03-27T09:44:10.557Z,16.40
2018-03-27T09:46:39.850Z,15.60
2018-03-27T09:49:09.112Z,15.40
2018-03-27T09:51:38.582Z,14.90
2018-03-27T09:54:07.830Z,14.30
2018-03-27T09:56:37.236Z,14.00
2018-03-27T09:59:06.515Z,13.70
2018-03-27T10:01:39.709Z,13.60
2018-03-27T10:04:08.991Z,13.80
2018-03-27T10:06:38.234Z,13.70
2018-03-27T10:09:08.048Z,13.60
2018-03-27T10:11:38.148Z,13.20
2018-03-27T10:14:08.186Z,12.90
2018-03-27T10:16:37.462Z,12.80
2018-03-27T10:19:06.809Z,12.80
2018-03-27T10:21:36.029Z,12.80
2018-03-27T10:24:05.306Z,12.90
2018-03-27T10:26:35.380Z,13.10
2018-03-27T10:29:05.418Z,13.20
2018-03-27T10:31:34.692Z,13.20
2018-03-27T10:34:03.970Z,13.10
2018-03-27T10:36:33.412Z,13.10
2018-03-27T10:39:03.426Z,14.20
2018-03-27T10:41:32.716Z,14.20
2018-03-27T10:44:02.088Z,15.50
2018-03-27T10:46:31.384Z,18.00
2018-03-27T10:49:00.640Z,20.20
2018-03-27T10:51:29.926Z,20.90
2018-03-27T10:53:59.201Z,21.30
2018-03-27T10:56:28.625Z,21.60
2018-03-27T10:58:58.105Z,20.80
2018-03-27T11:01:27.345Z,20.20
2018-03-27T11:03:56.672Z,18.90
2018-03-27T11:06:25.886Z,17.10
2018-03-27T11:08:55.173Z,15.50
2018-03-27T11:11:25.190Z,14.50
2018-03-27T11:13:54.662Z,13.70
2018-03-27T11:16:23.951Z,12.90
2018-03-27T11:18:53.317Z,12.60
2018-03-27T11:21:22.602Z,12.60
2018-03-27T11:23:51.887Z,12.90
2018-03-27T11:26:21.202Z,13.40
2018-03-27T11:28:50.462Z,14.00
2018-03-27T11:31:19.788Z,14.40
2018-03-27T11:33:49.045Z,14.30
2018-03-27T11:36:18.333Z,14.50
2018-03-27T11:38:47.589Z,14.40
2018-03-27T11:41:17.620Z,13.50
2018-03-27T11:43:46.894Z,13.50
2018-03-27T11:46:16.394Z,13.70
2018-03-27T11:48:45.842Z,13.70
2018-03-27T11:51:15.360Z,13.70
2018-03-27T11:53:44.663Z,13.70
2018-03-27T11:56:14.229Z,13.40
2018-03-27T11:58:44.360Z,13.50
2018-03-27T12:01:14.444Z,13.20
2018-03-27T12:03:43.702Z,13.20
2018-03-27T12:06:13.784Z,13.20
2018-03-27T12:08:43.050Z,13.50
2018-03-27T12:11:12.328Z,13.70
2018-03-27T12:13:41.804Z,13.50
2018-03-27T12:16:11.104Z,13.60
2018-03-27T12:18:41.134Z,14.20
2018-03-27T12:21:10.414Z,14.10
2018-03-27T12:23:39.767Z,14.20
2018-03-27T12:26:09.049Z,14.00
2018-03-27T12:28:38.345Z,13.50
2018-03-27T12:31:07.809Z,13.40
2018-03-27T12:33:37.860Z,13.50
2018-03-27T12:36:07.144Z,13.50
2018-03-27T12:38:36.408Z,13.50
2018-03-27T12:41:06.131Z,13.30
2018-03-27T12:43:35.618Z,13.00
2018-03-27T12:46:04.898Z,12.80
2018-03-27T12:48:34.148Z,12.50
2018-03-27T12:51:03.433Z,12.30
2018-03-27T12:53:32.875Z,12.20
2018-03-27T12:56:02.988Z,12.90
2018-03-27T12:58:32.343Z,12.90
2018-03-27T13:01:01.597Z,13.40
2018-03-27T13:03:31.681Z,13.30
2018-03-27T13:06:01.137Z,13.30
2018-03-27T13:08:30.602Z,13.10
2018-03-27T13:11:00.569Z,13.10
2018-03-27T13:13:30.028Z,12.90
2018-03-27T13:15:59.289Z,12.80
2018-03-27T13:18:28.975Z,12.50
2018-03-27T13:20:58.423Z,12.20
2018-03-27T13:23:27.816Z,12.00
2018-03-27T13:25:57.818Z,11.40
2018-03-27T13:28:27.099Z,11.40
2018-03-27T13:30:56.596Z,11.30
2018-03-27T13:33:25.871Z,11.30
2018-03-27T13:35:55.164Z,11.20
2018-03-27T13:38:24.444Z,11.10
2018-03-27T13:40:53.689Z,11.00
2018-03-27T13:43:22.971Z,10.80
2018-03-27T13:45:52.489Z,10.80
2018-03-27T13:48:21.746Z,10.80
2018-03-27T13:50:51.148Z,11.00
2018-03-27T13:53:20.534Z,11.10
2018-03-27T13:55:49.801Z,11.10
2018-03-27T13:58:19.066Z,11.00
2018-03-27T14:00:48.347Z,11.00
2018-03-27T14:03:17.626Z,11.10
2018-03-27T14:05:47.722Z,11.10
2018-03-27T14:08:17.072Z,11.20
2018-03-27T14:10:46.387Z,11.10
2018-03-27T14:13:15.679Z,11.00
2018-03-27T14:15:44.945Z,11.10
2018-03-27T14:18:15.210Z,11.40
2018-03-27T14:20:44.502Z,11.40
2018-03-27T14:23:14.598Z,11.60
2018-03-27T14:25:44.041Z,11.60
2018-03-27T14:28:13.321Z,11.60
2018-03-27T14:30:42.663Z,11.60
2018-03-27T14:33:11.946Z,11.40
2018-03-27T14:35:41.235Z,11.40
2018-03-27T14:38:10.551Z,11.30
2018-03-27T14:40:40.666Z,11.30
2018-03-27T14:43:09.936Z,11.20
2018-03-27T14:45:39.223Z,11.10
2018-03-27T14:48:08.502Z,11.10
2018-03-27T14:50:37.746Z,11.00
2018-03-27T14:53:07.079Z,10.90
2018-03-27T14:55:36.341Z,10.80
2018-03-27T14:58:05.685Z,10.90
2018-03-27T15:00:35.000Z,10.90
2018-03-27T15:03:04.291Z,11.00
2018-03-27T15:05:33.614Z,11.30
2018-03-27T15:08:02.888Z,11.50
2018-03-27T15:10:32.217Z,11.80
2018-03-27T15:13:01.631Z,11.70
2018-03-27T15:15:30.898Z,12.00
2018-03-27T15:18:00.168Z,12.20
2018-03-27T15:20:29.441Z,12.30
2018-03-27T15:22:58.695Z,12.10
2018-03-27T15:25:28.264Z,12.00
2018-03-27T15:27:57.544Z,12.00
2018-03-27T15:30:26.989Z,12.20
2018-03-27T15:32:56.906Z,12.30
2018-03-27T15:35:26.189Z,12.30
2018-03-27T15:37:55.518Z,12.20
2018-03-27T15:40:24.780Z,11.50
2018-03-27T15:42:54.075Z,10.90
2018-03-27T15:45:24.258Z,10.30
2018-03-27T15:47:53.854Z,9.90
2018-03-27T15:50:23.107Z,9.90
2018-03-27T15:52:52.675Z,9.70
2018-03-27T15:55:21.941Z,9.50
2018-03-27T15:57:51.199Z,9.50
2018-03-27T16:00:20.496Z,9.60
2018-03-27T16:02:49.799Z,9.70
2018-03-27T16:05:19.569Z,9.90
2018-03-27T16:07:49.297Z,10.00
2018-03-27T16:10:18.548Z,10.00
2018-03-27T16:12:48.244Z,10.10
2018-03-27T16:15:17.535Z,10.10
2018-03-27T16:17:46.809Z,10.20
2018-03-27T16:20:16.257Z,10.20
2018-03-27T16:22:46.304Z,10.20
2018-03-27T16:25:15.579Z,10.20
2018-03-27T16:27:44.853Z,10.10
2018-03-27T16:30:14.136Z,10.00
2018-03-27T16:32:43.513Z,9.90
2018-03-27T16:35:12.829Z,9.90
2018-03-27T16:37:42.127Z,9.80
2018-03-27T16:40:11.393Z,9.60
2018-03-27T16:42:40.637Z,9.50
2018-03-27T16:45:10.071Z,9.60
2018-03-27T16:47:40.148Z,9.60
2018-03-27T16:50:09.394Z,9.50
2018-03-27T16:52:38.785Z,9.60
2018-03-27T16:55:08.904Z,9.50
2018-03-27T16:57:39.019Z,9.40
2018-03-27T17:00:09.058Z,9.40
2018-03-27T17:02:38.360Z,9.30
2018-03-27T17:05:08.303Z,9.30
2018-03-27T17:07:37.554Z,9.40
2018-03-27T17:10:07.009Z,9.40
2018-03-27T17:12:36.309Z,9.50
2018-03-27T17:15:05.610Z,9.40
2018-03-27T17:17:34.953Z,9.40
2018-03-27T17:20:04.302Z,9.30
2018-03-27T17:22:33.566Z,9.30
2018-03-27T17:25:02.898Z,9.30
2018-03-27T17:27:32.265Z,9.30
2018-03-27T17:30:01.767Z,9.20
2018-03-27T17:32:31.292Z,9.20
2018-03-27T17:35:00.566Z,9.10
2018-03-27T17:37:29.900Z,9.10
2018-03-27T17:39:59.918Z,8.90
2018-03-27T17:42:29.223Z,8.90
2018-03-27T17:44:58.559Z,8.60
2018-03-27T17:47:27.816Z,8.50
2018-03-27T17:49:57.854Z,8.40
2018-03-27T17:52:27.889Z,8.30
2018-03-27T17:54:57.149Z,8.30
2018-03-27T17:57:27.187Z,8.30
2018-03-27T17:59:57.209Z,8.40
2018-03-27T18:02:26.461Z,8.40
2018-03-27T18:04:55.944Z,8.50
2018-03-27T18:07:26.115Z,8.50
2018-03-27T18:09:56.146Z,8.60
2018-03-27T18:12:26.166Z,8.50
2018-03-27T18:14:55.629Z,8.50
2018-03-27T18:17:24.891Z,8.50
2018-03-27T18:19:54.202Z,8.40
2018-03-27T18:22:23.567Z,8.50
2018-03-27T18:24:52.816Z,8.40
2018-03-27T18:27:22.074Z,8.40
2018-03-27T18:29:52.090Z,8.40
2018-03-27T18:32:21.586Z,8.40
2018-03-27T18:34:50.853Z,8.40
2018-03-27T18:37:20.166Z,8.50
2018-03-27T18:39:50.907Z,8.50
2018-03-27T18:42:20.189Z,8.40
2018-03-27T18:44:50.438Z,8.40
2018-03-27T18:47:19.718Z,8.40
2018-03-27T18:49:48.997Z,8.40
2018-03-27T18:52:18.256Z,8.40
2018-03-27T18:54:47.541Z,8.50
2018-03-27T18:57:16.792Z,8.40
2018-03-27T18:59:46.100Z,8.50
2018-03-27T19:02:15.322Z,8.30
2018-03-27T19:04:44.611Z,8.30
2018-03-27T19:07:13.895Z,8.20
2018-03-27T19:09:43.790Z,8.10
2018-03-27T19:12:13.132Z,8.00
2018-03-27T19:14:43.291Z,8.00
2018-03-27T19:17:12.617Z,8.00
2018-03-27T19:19:41.824Z,8.00
2018-03-27T19:22:11.267Z,8.00
2018-03-27T19:24:40.512Z,8.00
2018-03-27T19:27:09.950Z,8.00
2018-03-27T19:29:39.336Z,8.00
2018-03-27T19:32:09.381Z,8.10
2018-03-27T19:34:38.784Z,8.00
2018-03-27T19:37:08.067Z,8.00
2018-03-27T19:39:37.465Z,7.90
2018-03-27T19:42:06.723Z,7.90
2018-03-27T19:44:35.983Z,7.90
2018-03-27T19:47:05.279Z,7.90
2018-03-27T19:49:34.784Z,7.90
2018-03-27T19:52:05.115Z,7.90
2018-03-27T19:54:34.386Z,7.90
2018-03-27T19:57:03.746Z,7.90
2018-03-27T19:59:33.029Z,7.90
2018-03-27T20:02:02.311Z,7.80
2018-03-27T20:04:31.761Z,7.80
2018-03-27T20:07:01.003Z,7.80
2018-03-27T20:09:30.333Z,7.60
2018-03-27T20:11:59.665Z,7.60
2018-03-27T20:14:28.929Z,7.60
2018-03-27T20:16:59.588Z,7.50
2018-03-27T20:19:29.906Z,7.60
2018-03-27T20:22:00.121Z,7.50
2018-03-27T20:24:29.495Z,7.50
2018-03-27T20:26:59.551Z,7.40
2018-03-27T20:29:29.146Z,7.40
2018-03-27T20:31:59.381Z,7.30
2018-03-27T20:34:28.822Z,7.40
2018-03-27T20:36:58.133Z,7.40
2018-03-27T20:39:27.427Z,7.40
2018-03-27T20:41:56.678Z,7.30
2018-03-27T20:44:25.931Z,7.30
2018-03-27T20:46:55.190Z,7.30
2018-03-27T20:49:24.466Z,7.20
2018-03-27T20:51:53.762Z,7.20
2018-03-27T20:54:23.008Z,7.20
2018-03-27T20:56:53.063Z,7.10
2018-03-27T20:59:22.339Z,7.10
2018-03-27T21:01:51.601Z,7.10
2018-03-27T21:04:20.869Z,7.10
2018-03-27T21:06:50.182Z,7.10
2018-03-27T21:09:19.621Z,7.00
2018-03-27T21:11:48.890Z,7.00
2018-03-27T21:14:18.863Z,7.00
2018-03-27T21:16:48.246Z,7.00
2018-03-27T21:19:17.535Z,7.00
2018-03-27T21:21:46.841Z,7.00
2018-03-27T21:24:16.122Z,7.10
2018-03-27T21:26:45.550Z,7.00
2018-03-27T21:29:15.026Z,7.10
2018-03-27T21:31:44.316Z,7.10
2018-03-27T21:34:13.587Z,7.10
2018-03-27T21:36:44.073Z,7.10
2018-03-27T21:39:16.238Z,7.10
2018-03-27T21:41:45.951Z,7.20
2018-03-27T21:44:15.193Z,7.20
2018-03-27T21:46:44.481Z,7.20
2018-03-27T21:49:13.755Z,7.10
2018-03-27T21:51:43.013Z,7.20
2018-03-27T21:54:13.093Z,7.00
2018-03-27T21:56:43.257Z,6.90
2018-03-27T21:59:13.405Z,6.90
2018-03-27T22:01:42.711Z,6.90
2018-03-27T22:04:12.072Z,7.00
2018-03-27T22:06:41.335Z,7.00
2018-03-27T22:09:10.652Z,7.00
2018-03-27T22:11:39.942Z,7.00
2018-03-27T22:14:09.224Z,7.00
2018-03-27T22:16:38.818Z,7.00
2018-03-27T22:19:08.242Z,7.00
2018-03-27T22:21:37.518Z,7.10
2018-03-27T22:24:06.770Z,7.10
2018-03-27T22:26:36.113Z,7.10
2018-03-27T22:29:05.489Z,7.20
2018-03-27T22:31:34.751Z,7.30
2018-03-27T22:34:04.121Z,7.30
2018-03-27T22:36:33.555Z,7.40
2018-03-27T22:39:02.977Z,7.40
2018-03-27T22:41:32.258Z,7.40
2018-03-27T22:44:01.522Z,7.50
2018-03-27T22:46:30.776Z,7.50
2018-03-27T22:49:00.058Z,7.60
2018-03-27T22:51:29.342Z,7.60
2018-03-27T22:53:58.614Z,7.60
2018-03-27T22:56:27.869Z,7.60
2018-03-27T22:58:57.887Z,7.60
2018-03-27T23:01:27.168Z,7.60
2018-03-27T23:03:58.230Z,7.70
2018-03-27T23:06:28.357Z,7.70
2018-03-27T23:08:58.099Z,7.70
2018-03-27T23:11:27.385Z,7.60
2018-03-27T23:13:56.658Z,7.60
2018-03-27T23:16:25.945Z,7.60
2018-03-27T23:18:55.208Z,7.70
2018-03-27T23:21:24.484Z,7.70
2018-03-27T23:23:53.871Z,7.70
2018-03-27T23:26:23.922Z,7.70
2018-03-27T23:28:53.270Z,7.60
2018-03-27T23:31:22.579Z,7.60
2018-03-27T23:33:51.968Z,7.70
2018-03-27T23:36:21.523Z,7.70
2018-03-27T23:38:51.549Z,7.70
2018-03-27T23:41:20.902Z,7.70
2018-03-27T23:43:51.104Z,7.70
2018-03-27T23:46:20.462Z,7.70
2018-03-27T23:48:50.597Z,7.70
2018-03-27T23:51:20.135Z,7.70
2018-03-27T23:53:49.566Z,7.70
2018-03-27T23:56:18.929Z,7.80
2018-03-27T23:58:48.245Z,7.80
